createdAt,value
2023-05-17T00:00:25.565Z,99618.56
2023-05-17T00:02:54.583Z,99616.75
2023-05-17T00:05:22.385Z,99617.69
2023-05-17T00:07:50.222Z,99620.50
2023-05-17T00:10:18.047Z,99631.97
2023-05-17T00:12:46.147Z,99637.28
2023-05-17T00:15:14.660Z,99642.72
2023-05-17T00:17:42.362Z,99634.84
2023-05-17T00:20:12.563Z,99633.06
2023-05-17T00:22:41.110Z,99633.75
2023-05-17T00:25:09.087Z,99640.28
2023-05-17T00:27:36.712Z,99638.56
2023-05-17T00:30:04.662Z,99639.50
2023-05-17T00:32:32.488Z,99642.16
2023-05-17T00:35:00.435Z,99641.41
2023-05-17T00:37:29.604Z,99634.38
2023-05-17T00:39:57.285Z,99636.09
2023-05-17T00:42:25.022Z,99645.56
2023-05-17T00:44:58.510Z,99637.91
2023-05-17T00:47:26.223Z,99656.22
2023-05-17T00:49:53.969Z,99646.34
2023-05-17T00:52:21.763Z,99644.94
2023-05-17T00:54:51.753Z,99649.19
2023-05-17T00:57:19.469Z,99644.84
2023-05-17T00:59:47.761Z,99647.69
2023-05-17T01:02:15.649Z,99653.75
2023-05-17T01:04:43.315Z,99656.13
2023-05-17T01:07:11.285Z,99654.53
2023-05-17T01:09:39.242Z,99656.75
2023-05-17T01:12:15.275Z,99656.66
2023-05-17T01:14:58.523Z,99648.78
2023-05-17T01:17:30.362Z,99653.28
2023-05-17T01:20:07.479Z,99660.44
2023-05-17T01:22:41.059Z,99666.75
2023-05-17T01:25:17.812Z,99667.84
2023-05-17T01:27:49.216Z,99656.34
2023-05-17T01:30:18.126Z,99671.41
2023-05-17T01:32:46.640Z,99678.78
2023-05-17T01:35:14.491Z,99681.59
2023-05-17T01:37:42.250Z,99677.75
2023-05-17T01:40:10.568Z,99686.50
2023-05-17T01:42:40.355Z,99685.00
2023-05-17T01:45:13.596Z,99684.25
2023-05-17T01:47:46.718Z,99687.06
2023-05-17T01:50:16.536Z,99692.19
2023-05-17T01:52:49.800Z,99690.59
2023-05-17T01:55:22.028Z,99687.38
2023-05-17T01:57:50.229Z,99683.06
2023-05-17T02:00:20.333Z,99676.16
2023-05-17T02:02:48.197Z,99682.13
2023-05-17T02:05:15.943Z,99681.38
2023-05-17T02:07:43.660Z,99685.66
2023-05-17T02:10:12.032Z,99672.78
2023-05-17T02:12:39.794Z,99684.03
2023-05-17T02:15:11.234Z,99680.78
2023-05-17T02:17:41.398Z,99684.06
2023-05-17T02:20:11.608Z,99688.56
2023-05-17T02:22:39.215Z,99678.13
2023-05-17T02:25:08.029Z,99675.63
2023-05-17T02:27:36.169Z,99684.41
2023-05-17T02:30:04.614Z,99678.31
2023-05-17T02:32:32.518Z,99680.28
2023-05-17T02:35:01.601Z,99686.38
2023-05-17T02:37:29.227Z,99693.34
2023-05-17T02:39:56.874Z,99692.44
2023-05-17T02:42:24.536Z,99697.00
2023-05-17T02:44:53.015Z,99692.66
2023-05-17T02:47:21.191Z,99696.19
2023-05-17T02:49:48.908Z,99697.97
2023-05-17T02:52:17.885Z,99695.56
2023-05-17T02:54:45.901Z,99701.69
2023-05-17T02:57:13.602Z,99704.47
2023-05-17T02:59:41.280Z,99710.44
2023-05-17T03:02:08.961Z,99705.44
2023-05-17T03:04:37.058Z,99707.44
2023-05-17T03:07:06.977Z,99714.94
2023-05-17T03:09:36.301Z,99714.00
2023-05-17T03:12:04.057Z,99710.88
2023-05-17T03:14:31.931Z,99712.69
2023-05-17T03:16:59.634Z,99723.06
2023-05-17T03:19:27.598Z,99719.72
2023-05-17T03:21:55.291Z,99717.41
2023-05-17T03:24:22.932Z,99730.13
2023-05-17T03:26:51.895Z,99726.59
2023-05-17T03:29:19.543Z,99728.50
2023-05-17T03:31:47.148Z,99728.41
2023-05-17T03:34:14.900Z,99733.91
2023-05-17T03:36:42.631Z,99738.50
2023-05-17T03:39:10.286Z,99730.56
2023-05-17T03:41:37.986Z,99731.72
2023-05-17T03:44:07.133Z,99738.59
2023-05-17T03:46:34.823Z,99740.63
2023-05-17T03:49:02.568Z,99741.16
2023-05-17T03:51:30.842Z,99740.31
2023-05-17T03:53:59.806Z,99747.25
2023-05-17T03:56:27.813Z,99742.84
2023-05-17T03:58:55.469Z,99744.63
2023-05-17T04:01:24.424Z,99736.75
2023-05-17T04:03:52.159Z,99747.97
2023-05-17T04:06:19.793Z,99739.94
2023-05-17T04:08:47.438Z,99737.34
2023-05-17T04:11:15.471Z,99739.84
2023-05-17T04:13:43.524Z,99733.94
2023-05-17T04:16:11.489Z,99740.97
2023-05-17T04:18:40.553Z,99742.63
2023-05-17T04:21:08.373Z,99741.94
2023-05-17T04:23:36.470Z,99755.84
2023-05-17T04:26:04.845Z,99753.19
2023-05-17T04:28:34.839Z,99763.38
2023-05-17T04:31:02.513Z,99757.91
2023-05-17T04:33:30.157Z,99758.00
2023-05-17T04:35:59.283Z,99765.66
2023-05-17T04:38:26.986Z,99758.69
2023-05-17T04:40:54.799Z,99758.38
2023-05-17T04:43:22.483Z,99761.75
2023-05-17T04:45:50.203Z,99765.09
2023-05-17T04:48:19.955Z,99765.88
2023-05-17T04:50:48.016Z,99764.22
2023-05-17T04:53:17.041Z,99766.66
2023-05-17T04:55:44.935Z,99769.22
2023-05-17T04:58:13.040Z,99779.63
2023-05-17T05:00:40.696Z,99781.34
2023-05-17T05:03:08.661Z,99783.78
2023-05-17T05:05:36.585Z,99786.16
2023-05-17T05:08:04.344Z,99797.53
2023-05-17T05:10:33.499Z,99791.97
2023-05-17T05:13:01.203Z,99795.50
2023-05-17T05:15:29.197Z,99807.41
2023-05-17T05:17:57.356Z,99801.41
2023-05-17T05:20:27.731Z,99804.81
2023-05-17T05:22:57.380Z,99815.06
2023-05-17T05:25:25.073Z,99821.28
2023-05-17T05:27:54.065Z,99826.38
2023-05-17T05:30:22.911Z,99821.78
2023-05-17T05:32:50.827Z,99827.81
2023-05-17T05:35:18.974Z,99821.59
2023-05-17T05:37:46.877Z,99825.66
2023-05-17T05:40:15.459Z,99829.94
2023-05-17T05:42:43.040Z,99827.38
2023-05-17T05:45:13.237Z,99822.03
2023-05-17T05:47:40.990Z,99836.38
2023-05-17T05:50:10.299Z,99828.69
2023-05-17T05:52:38.063Z,99832.53
2023-05-17T05:55:06.291Z,99829.59
2023-05-17T05:57:33.925Z,99833.88
2023-05-17T06:00:01.519Z,99838.94
2023-05-17T06:02:30.569Z,99839.97
2023-05-17T06:04:58.210Z,99842.38
2023-05-17T06:07:25.891Z,99854.59
2023-05-17T06:09:53.570Z,99851.34
2023-05-17T06:12:21.411Z,99861.84
2023-05-17T06:14:49.066Z,99870.34
2023-05-17T06:17:16.723Z,99859.44
2023-05-17T06:19:46.007Z,99864.41
2023-05-17T06:22:13.637Z,99865.19
2023-05-17T06:24:41.246Z,99866.50
2023-05-17T06:27:09.077Z,99873.56
2023-05-17T06:29:36.703Z,99857.25
2023-05-17T06:32:05.480Z,99864.81
2023-05-17T06:34:33.130Z,99873.13
2023-05-17T06:37:02.210Z,99854.88
2023-05-17T06:39:29.863Z,99861.66
2023-05-17T06:41:57.574Z,99883.06
2023-05-17T06:44:25.395Z,99883.28
2023-05-17T06:46:53.074Z,99893.91
2023-05-17T06:49:20.877Z,99894.06
2023-05-17T06:51:49.192Z,99893.31
2023-05-17T06:54:20.596Z,99896.72
2023-05-17T06:56:48.178Z,99896.84
2023-05-17T06:59:16.547Z,99884.59
2023-05-17T07:01:44.187Z,99877.19
2023-05-17T07:04:11.964Z,99886.88
2023-05-17T07:06:39.647Z,99896.31
2023-05-17T07:09:10.386Z,99894.06
2023-05-17T07:11:41.982Z,99906.16
2023-05-17T07:14:09.620Z,99899.50
2023-05-17T07:16:37.310Z,99898.53
2023-05-17T07:19:05.173Z,99907.78
2023-05-17T07:21:33.017Z,99910.47
2023-05-17T07:24:00.837Z,99907.41
2023-05-17T07:26:28.455Z,99905.53
2023-05-17T07:28:57.453Z,99879.81
2023-05-17T07:31:25.318Z,99905.78
2023-05-17T07:33:53.134Z,99893.34
2023-05-17T07:36:20.925Z,99899.31
2023-05-17T07:38:48.641Z,99907.25
2023-05-17T07:41:17.167Z,99906.88
2023-05-17T07:43:44.854Z,99907.06
2023-05-17T07:46:13.851Z,99909.75
2023-05-17T07:48:41.578Z,99907.06
2023-05-17T07:51:09.388Z,99910.47
2023-05-17T07:53:37.091Z,99894.47
2023-05-17T07:56:05.037Z,99893.44
2023-05-17T07:58:32.801Z,99886.53
2023-05-17T08:01:00.948Z,99897.44
2023-05-17T08:03:30.773Z,99892.63
2023-05-17T08:05:58.466Z,99903.34
2023-05-17T08:08:26.366Z,99897.31
2023-05-17T08:10:54.058Z,99901.97
2023-05-17T08:13:23.571Z,99891.63
2023-05-17T08:15:55.985Z,99901.38
2023-05-17T08:18:30.630Z,99899.47
2023-05-17T08:20:58.549Z,99900.28
2023-05-17T08:23:26.333Z,99904.13
2023-05-17T08:25:53.975Z,99900.88
2023-05-17T08:28:22.227Z,99896.31
2023-05-17T08:30:50.066Z,99874.38
2023-05-17T08:33:17.824Z,99879.06
2023-05-17T08:35:47.577Z,99888.66
2023-05-17T08:38:15.304Z,99899.63
2023-05-17T08:40:43.022Z,99898.69
2023-05-17T08:43:12.956Z,99900.81
2023-05-17T08:45:41.033Z,99887.09
2023-05-17T08:48:09.275Z,99880.81
2023-05-17T08:50:38.701Z,99868.34
2023-05-17T08:53:09.101Z,99860.03
2023-05-17T08:55:38.051Z,99883.31
2023-05-17T08:58:07.151Z,99899.38
2023-05-17T09:00:35.058Z,99895.59
2023-05-17T09:03:02.920Z,99897.66
2023-05-17T09:05:30.785Z,99896.78
2023-05-17T09:07:59.307Z,99900.69
2023-05-17T09:10:28.713Z,99896.25
2023-05-17T09:12:56.677Z,99884.13
2023-05-17T09:15:27.167Z,99906.91
2023-05-17T09:17:56.164Z,99883.22
2023-05-17T09:20:25.778Z,99861.69
2023-05-17T09:23:04.353Z,99856.28
2023-05-17T09:25:32.530Z,99888.38
2023-05-17T09:28:02.705Z,99888.72
2023-05-17T09:30:31.596Z,99880.06
2023-05-17T09:32:59.658Z,99878.28
2023-05-17T09:35:31.575Z,99879.78
2023-05-17T09:38:08.544Z,99884.25
2023-05-17T09:40:40.623Z,99886.00
2023-05-17T09:43:09.121Z,99891.94
2023-05-17T09:45:37.305Z,99844.88
2023-05-17T09:48:15.292Z,99886.09
2023-05-17T09:50:47.135Z,99893.34
2023-05-17T09:53:29.703Z,99893.91
2023-05-17T09:55:58.892Z,99884.53
2023-05-17T09:58:27.119Z,99895.25
2023-05-17T10:00:55.568Z,99897.75
2023-05-17T10:03:23.844Z,99893.09
2023-05-17T10:05:52.357Z,99888.00
2023-05-17T10:08:25.918Z,99878.28
2023-05-17T10:10:56.730Z,99883.44
2023-05-17T10:13:25.858Z,99878.75
2023-05-17T10:15:54.731Z,99884.31
2023-05-17T10:18:23.228Z,99878.28
2023-05-17T10:20:51.525Z,99877.94
2023-05-17T10:23:20.253Z,99872.19
2023-05-17T10:25:48.416Z,99867.69
2023-05-17T10:28:18.255Z,99870.31
2023-05-17T10:30:46.736Z,99873.91
2023-05-17T10:33:14.523Z,99872.41
2023-05-17T10:35:42.580Z,99872.69
2023-05-17T10:38:10.589Z,99866.09
2023-05-17T10:40:38.705Z,99871.06
2023-05-17T10:43:07.159Z,99865.56
2023-05-17T10:45:37.852Z,99866.28
2023-05-17T10:48:06.843Z,99863.31
2023-05-17T10:50:34.898Z,99866.19
2023-05-17T10:53:04.665Z,99862.94
2023-05-17T10:55:38.977Z,99858.53
2023-05-17T10:58:17.873Z,99863.47
2023-05-17T11:00:48.806Z,99859.41
2023-05-17T11:03:18.452Z,99848.16
2023-05-17T11:06:21.944Z,99842.25
2023-05-17T11:09:09.261Z,99849.41
2023-05-17T11:11:37.193Z,99844.59
2023-05-17T11:14:05.872Z,99839.72
2023-05-17T11:16:38.179Z,99844.22
2023-05-17T11:19:10.331Z,99842.44
2023-05-17T11:21:46.723Z,99843.13
2023-05-17T11:24:18.044Z,99840.94
2023-05-17T11:26:47.198Z,99846.94
2023-05-17T11:29:15.794Z,99848.72
2023-05-17T11:31:46.401Z,99844.91
2023-05-17T11:34:14.243Z,99848.16
2023-05-17T11:36:52.936Z,99843.13
2023-05-17T11:39:22.755Z,99833.44
2023-05-17T11:41:51.706Z,99839.28
2023-05-17T11:44:26.148Z,99829.22
2023-05-17T11:47:01.840Z,99836.00
2023-05-17T11:49:35.762Z,99830.09
2023-05-17T11:52:04.424Z,99825.97
2023-05-17T11:54:32.130Z,99836.69
2023-05-17T11:57:00.772Z,99835.50
2023-05-17T11:59:28.440Z,99838.06
2023-05-17T12:01:57.505Z,99831.63
2023-05-17T12:04:27.061Z,99827.19
2023-05-17T12:06:55.830Z,99839.53
2023-05-17T12:09:26.088Z,99830.69
2023-05-17T12:11:53.824Z,99833.59
2023-05-17T12:14:21.752Z,99828.72
2023-05-17T12:16:53.176Z,99834.63
2023-05-17T12:19:23.467Z,99822.56
2023-05-17T12:21:51.693Z,99827.69
2023-05-17T12:24:19.747Z,99827.13
2023-05-17T12:26:48.327Z,99830.34
2023-05-17T12:29:22.816Z,99831.78
2023-05-17T12:31:51.951Z,99820.81
2023-05-17T12:34:19.861Z,99819.09
2023-05-17T12:36:50.624Z,99829.22
2023-05-17T12:39:23.506Z,99811.66
2023-05-17T12:41:51.961Z,99821.41
2023-05-17T12:44:20.799Z,99825.28
2023-05-17T12:46:53.507Z,99805.56
2023-05-17T12:49:23.120Z,99807.25
2023-05-17T12:51:52.279Z,99784.09
2023-05-17T12:54:29.644Z,99814.16
2023-05-17T12:56:57.857Z,99808.94
2023-05-17T12:59:26.298Z,99805.81
2023-05-17T13:01:56.561Z,99807.09
2023-05-17T13:04:31.767Z,99799.31
2023-05-17T13:07:02.596Z,99802.34
2023-05-17T13:09:32.009Z,99808.13
2023-05-17T13:12:00.892Z,99807.44
2023-05-17T13:14:36.519Z,99810.84
2023-05-17T13:17:05.552Z,99801.66
2023-05-17T13:19:33.699Z,99811.00
2023-05-17T13:22:02.821Z,99805.94
2023-05-17T13:24:32.419Z,99798.78
2023-05-17T13:27:00.132Z,99796.13
2023-05-17T13:29:38.297Z,99792.97
2023-05-17T13:32:07.810Z,99797.00
2023-05-17T13:34:35.892Z,99783.75
2023-05-17T13:37:05.917Z,99793.50
2023-05-17T13:39:35.761Z,99794.91
2023-05-17T13:42:03.665Z,99781.75
2023-05-17T13:44:31.379Z,99744.84
2023-05-17T13:46:59.040Z,99777.53
2023-05-17T13:49:28.180Z,99775.03
2023-05-17T13:51:56.717Z,99778.56
2023-05-17T13:54:25.790Z,99775.97
2023-05-17T13:56:54.893Z,99775.75
2023-05-17T13:59:22.490Z,99768.56
2023-05-17T14:01:50.181Z,99764.38
2023-05-17T14:04:17.858Z,99758.09
2023-05-17T14:06:48.035Z,99750.09
2023-05-17T14:09:16.732Z,99745.72
2023-05-17T14:11:46.222Z,99743.72
2023-05-17T14:14:13.808Z,99757.81
2023-05-17T14:16:41.688Z,99750.38
2023-05-17T14:19:09.389Z,99746.47
2023-05-17T14:21:37.079Z,99742.38
2023-05-17T14:24:04.886Z,99749.56
2023-05-17T14:26:32.609Z,99748.44
2023-05-17T14:29:01.729Z,99740.63
2023-05-17T14:31:32.242Z,99749.66
2023-05-17T14:33:59.980Z,99740.06
2023-05-17T14:36:28.062Z,99723.03
2023-05-17T14:38:55.667Z,99736.06
2023-05-17T14:41:23.326Z,99753.81
2023-05-17T14:43:51.152Z,99735.34
2023-05-17T14:46:20.278Z,99741.53
2023-05-17T14:48:48.059Z,99741.16
2023-05-17T14:51:15.724Z,99740.09
2023-05-17T14:53:43.352Z,99735.25
2023-05-17T14:56:11.436Z,99726.28
2023-05-17T14:58:39.408Z,99735.53
2023-05-17T15:01:07.399Z,99739.16
2023-05-17T15:03:36.892Z,99742.53
2023-05-17T15:06:08.176Z,99737.50
2023-05-17T15:08:39.358Z,99740.63
2023-05-17T15:11:07.401Z,99738.34
2023-05-17T15:13:35.378Z,99729.38
2023-05-17T15:16:03.858Z,99728.50
2023-05-17T15:18:31.684Z,99736.13
2023-05-17T15:21:00.848Z,99730.00
2023-05-17T15:23:29.272Z,99733.25
2023-05-17T15:25:57.227Z,99735.63
2023-05-17T15:28:25.315Z,99730.59
2023-05-17T15:31:01.460Z,99722.97
2023-05-17T15:33:30.794Z,99727.69
2023-05-17T15:36:00.166Z,99726.47
2023-05-17T15:38:28.408Z,99728.47
2023-05-17T15:41:03.893Z,99721.44
2023-05-17T15:43:31.889Z,99717.31
2023-05-17T15:46:00.063Z,99711.28
2023-05-17T15:48:29.271Z,99718.41
2023-05-17T15:50:57.526Z,99718.78
2023-05-17T15:53:27.697Z,99712.88
2023-05-17T15:55:55.449Z,99724.88
2023-05-17T15:58:24.311Z,99721.91
2023-05-17T16:00:52.489Z,99719.88
2023-05-17T16:03:20.429Z,99726.50
2023-05-17T16:05:48.277Z,99725.53
2023-05-17T16:08:16.485Z,99719.47
2023-05-17T16:10:47.762Z,99721.16
2023-05-17T16:13:15.622Z,99723.44
2023-05-17T16:15:43.401Z,99721.94
2023-05-17T16:18:13.625Z,99718.22
2023-05-17T16:20:41.522Z,99726.75
2023-05-17T16:23:09.155Z,99724.28
2023-05-17T16:25:37.573Z,99727.75
2023-05-17T16:28:06.626Z,99722.25
2023-05-17T16:30:34.249Z,99711.91
2023-05-17T16:33:01.928Z,99717.97
2023-05-17T16:35:30.126Z,99727.47
2023-05-17T16:37:58.141Z,99738.09
2023-05-17T16:40:28.753Z,99736.41
2023-05-17T16:42:56.641Z,99735.25
2023-05-17T16:45:27.459Z,99730.00
2023-05-17T16:47:57.512Z,99734.84
2023-05-17T16:50:25.153Z,99734.94
2023-05-17T16:52:52.791Z,99734.97
2023-05-17T16:55:20.474Z,99728.94
2023-05-17T16:57:48.134Z,99732.09
2023-05-17T17:00:16.833Z,99731.78
2023-05-17T17:02:45.953Z,99732.72
2023-05-17T17:05:13.653Z,99735.59
2023-05-17T17:07:41.327Z,99729.78
2023-05-17T17:10:09.763Z,99729.19
2023-05-17T17:12:37.489Z,99730.06
2023-05-17T17:15:07.795Z,99734.59
2023-05-17T17:17:36.153Z,99737.16
2023-05-17T17:20:06.577Z,99740.31
2023-05-17T17:22:34.236Z,99730.78
2023-05-17T17:25:02.010Z,99736.22
2023-05-17T17:27:29.719Z,99738.78
2023-05-17T17:29:57.839Z,99750.19
2023-05-17T17:32:25.610Z,99741.00
2023-05-17T17:34:53.333Z,99750.31
2023-05-17T17:37:22.565Z,99752.28
2023-05-17T17:39:50.156Z,99750.66
2023-05-17T17:42:17.830Z,99750.72
2023-05-17T17:44:45.429Z,99755.63
2023-05-17T17:47:13.352Z,99745.38
2023-05-17T17:49:41.104Z,99753.00
2023-05-17T17:52:08.741Z,99762.88
2023-05-17T17:54:37.755Z,99759.38
2023-05-17T17:57:05.666Z,99759.91
2023-05-17T17:59:33.331Z,99754.94
2023-05-17T18:02:00.990Z,99758.50
2023-05-17T18:04:28.674Z,99757.34
2023-05-17T18:06:56.784Z,99756.63
2023-05-17T18:09:24.516Z,99761.63
2023-05-17T18:11:53.520Z,99763.34
2023-05-17T18:14:21.712Z,99773.81
2023-05-17T18:16:49.498Z,99738.72
2023-05-17T18:19:17.276Z,99775.41
2023-05-17T18:21:44.926Z,99779.47
2023-05-17T18:24:12.618Z,99780.47
2023-05-17T18:26:40.395Z,99779.22
2023-05-17T18:29:09.368Z,99787.78
2023-05-17T18:31:37.107Z,99793.31
2023-05-17T18:34:04.789Z,99786.78
2023-05-17T18:36:32.414Z,99786.44
2023-05-17T18:39:00.857Z,99787.22
2023-05-17T18:41:28.434Z,99789.47
2023-05-17T18:44:01.485Z,99784.19
2023-05-17T18:46:30.972Z,99779.34
2023-05-17T18:48:58.831Z,99789.38
2023-05-17T18:51:26.498Z,99786.28
2023-05-17T18:53:55.082Z,99790.00
2023-05-17T18:56:24.984Z,99784.88
2023-05-17T18:58:52.944Z,99788.38
2023-05-17T19:01:20.640Z,99794.38
2023-05-17T19:03:51.379Z,99795.25
2023-05-17T19:06:19.497Z,99800.97
2023-05-17T19:08:47.159Z,99809.47
2023-05-17T19:11:14.808Z,99813.19
2023-05-17T19:13:42.550Z,99800.94
2023-05-17T19:16:10.268Z,99821.47
2023-05-17T19:18:37.887Z,99807.91
2023-05-17T19:21:07.474Z,99820.88
2023-05-17T19:23:36.011Z,99812.41
2023-05-17T19:26:03.784Z,99827.09
2023-05-17T19:28:32.960Z,99829.78
2023-05-17T19:31:00.739Z,99826.19
2023-05-17T19:33:28.377Z,99825.84
2023-05-17T19:35:56.082Z,99836.22
2023-05-17T19:38:25.024Z,99837.59
2023-05-17T19:40:52.671Z,99845.69
2023-05-17T19:43:20.337Z,99853.03
2023-05-17T19:45:47.963Z,99848.22
2023-05-17T19:48:15.595Z,99858.13
2023-05-17T19:50:43.316Z,99858.91
2023-05-17T19:53:11.024Z,99865.31
2023-05-17T19:55:40.971Z,99859.44
2023-05-17T19:58:08.595Z,99861.78
2023-05-17T20:00:37.411Z,99859.97
2023-05-17T20:03:05.894Z,99872.88
2023-05-17T20:05:33.642Z,99872.72
2023-05-17T20:08:02.524Z,99880.56
2023-05-17T20:10:31.474Z,99875.34
2023-05-17T20:13:00.725Z,99872.81
2023-05-17T20:15:28.511Z,99873.72
2023-05-17T20:17:56.187Z,99881.91
2023-05-17T20:20:25.010Z,99879.94
2023-05-17T20:22:52.590Z,99879.88
2023-05-17T20:25:20.549Z,99879.75
2023-05-17T20:27:48.324Z,99888.38
2023-05-17T20:30:17.430Z,99887.94
2023-05-17T20:32:45.079Z,99891.28
2023-05-17T20:35:12.743Z,99885.91
2023-05-17T20:37:40.412Z,99889.84
2023-05-17T20:40:09.627Z,99892.75
2023-05-17T20:42:40.260Z,99891.47
2023-05-17T20:45:08.900Z,99898.66
2023-05-17T20:47:37.923Z,99895.25
2023-05-17T20:50:06.193Z,99898.13
2023-05-17T20:52:39.546Z,99901.31
2023-05-17T20:55:08.813Z,99900.06
2023-05-17T20:57:36.550Z,99905.38
2023-05-17T21:00:06.130Z,99890.66
2023-05-17T21:02:33.917Z,99910.75
2023-05-17T21:05:03.367Z,99909.66
2023-05-17T21:07:31.061Z,99912.88
2023-05-17T21:09:58.827Z,99897.84
2023-05-17T21:12:26.931Z,99903.78
2023-05-17T21:15:07.931Z,99908.09
2023-05-17T21:17:42.166Z,99906.66
2023-05-17T21:20:12.582Z,99905.66
2023-05-17T21:22:40.213Z,99903.97
2023-05-17T21:25:08.555Z,99908.56
2023-05-17T21:27:36.157Z,99915.75
2023-05-17T21:30:03.838Z,99908.53
2023-05-17T21:32:31.580Z,99911.59
2023-05-17T21:34:59.616Z,99911.03
2023-05-17T21:37:28.593Z,99913.78
2023-05-17T21:39:56.264Z,99916.13
2023-05-17T21:42:24.137Z,99912.22
2023-05-17T21:44:52.857Z,99911.00
2023-05-17T21:47:20.484Z,99913.41
2023-05-17T21:49:48.134Z,99914.13
2023-05-17T21:52:15.821Z,99914.13
2023-05-17T21:54:45.056Z,99922.88
2023-05-17T21:57:12.708Z,99920.38
2023-05-17T21:59:40.369Z,99923.31
2023-05-17T22:02:08.684Z,99917.31
2023-05-17T22:04:36.639Z,99921.69
2023-05-17T22:07:05.390Z,99919.09
2023-05-17T22:09:34.238Z,99918.16
2023-05-17T22:12:04.913Z,99910.59
2023-05-17T22:14:33.296Z,99920.31
2023-05-17T22:17:01.350Z,99912.75
2023-05-17T22:19:31.096Z,99917.94
2023-05-17T22:21:58.928Z,99913.59
2023-05-17T22:24:26.486Z,99922.53
2023-05-17T22:26:54.081Z,99910.28
2023-05-17T22:29:23.190Z,99919.72
2023-05-17T22:31:50.888Z,99910.25
2023-05-17T22:34:18.868Z,99921.88
2023-05-17T22:36:46.480Z,99925.56
2023-05-17T22:39:14.237Z,99918.28
2023-05-17T22:41:41.896Z,99921.13
2023-05-17T22:44:09.506Z,99917.69
2023-05-17T22:46:38.788Z,99912.56
2023-05-17T22:49:06.424Z,99908.72
2023-05-17T22:51:35.267Z,99921.72
2023-05-17T22:54:03.251Z,99918.94
2023-05-17T22:56:31.183Z,99925.97
2023-05-17T22:58:59.187Z,99921.91
2023-05-17T23:01:26.872Z,99922.81
2023-05-17T23:03:56.225Z,99935.16
2023-05-17T23:06:24.363Z,99929.69
2023-05-17T23:08:52.876Z,99931.63
2023-05-17T23:11:20.910Z,99923.06
2023-05-17T23:13:48.558Z,99922.22
2023-05-17T23:16:16.437Z,99924.09
2023-05-17T23:18:44.402Z,99925.78
2023-05-17T23:21:13.498Z,99928.16
2023-05-17T23:23:41.434Z,99928.06
2023-05-17T23:26:09.078Z,99931.59
2023-05-17T23:28:38.194Z,99918.13
2023-05-17T23:31:06.105Z,99919.16
2023-05-17T23:33:33.714Z,99918.53
2023-05-17T23:36:01.344Z,99921.28
2023-05-17T23:38:30.425Z,99923.06
2023-05-17T23:40:58.240Z,99917.06
2023-05-17T23:43:26.305Z,99918.28
2023-05-17T23:45:53.986Z,99912.75
2023-05-17T23:48:25.608Z,99915.53
2023-05-17T23:50:53.258Z,99913.81
2023-05-17T23:53:20.852Z,99911.97
2023-05-17T23:55:49.824Z,99902.69
2023-05-17T23:58:17.430Z,99912.94
